sensor_id;sensor_type;location;lat;lon;timestamp;pressure;altitude;pressure_sealevel;temperature;humidity
69187;BME280;56301;56.864;60.554;2024-01-30T00:01:10;98900.06;;;26.65;27.65
69187;BME280;56301;56.864;60.554;2024-01-30T00:03:32;98900.06;;;26.65;27.76
69187;BME280;56301;56.864;60.554;2024-01-30T00:05:55;98896.50;;;26.64;27.17
69187;BME280;56301;56.864;60.554;2024-01-30T00:08:17;98889.66;;;26.69;26.86
69187;BME280;56301;56.864;60.554;2024-01-30T00:10:40;98882.75;;;26.66;27.51
69187;BME280;56301;56.864;60.554;2024-01-30T00:13:02;98878.53;;;26.63;27.96
69187;BME280;56301;56.864;60.554;2024-01-30T00:15:25;98874.78;;;26.64;27.75
69187;BME280;56301;56.864;60.554;2024-01-30T00:17:47;98873.78;;;26.66;27.29
69187;BME280;56301;56.864;60.554;2024-01-30T00:20:10;98878.78;;;26.69;27.07
69187;BME280;56301;56.864;60.554;2024-01-30T00:22:32;98876.28;;;26.67;27.70
69187;BME280;56301;56.864;60.554;2024-01-30T00:24:55;98871.91;;;26.66;27.76
69187;BME280;56301;56.864;60.554;2024-01-30T00:27:17;98864.97;;;26.63;27.67
69187;BME280;56301;56.864;60.554;2024-01-30T00:29:40;98867.69;;;26.63;28.00
69187;BME280;56301;56.864;60.554;2024-01-30T00:32:02;98859.53;;;26.63;27.54
69187;BME280;56301;56.864;60.554;2024-01-30T00:34:24;98853.47;;;26.61;27.50
69187;BME280;56301;56.864;60.554;2024-01-30T00:36:47;98860.38;;;26.64;26.67
69187;BME280;56301;56.864;60.554;2024-01-30T00:39:10;98859.53;;;26.63;27.11
69187;BME280;56301;56.864;60.554;2024-01-30T00:41:32;98855.63;;;26.66;27.53
69187;BME280;56301;56.864;60.554;2024-01-30T00:43:55;98853.28;;;26.63;28.14
69187;BME280;56301;56.864;60.554;2024-01-30T00:46:17;98843.66;;;26.60;27.26
69187;BME280;56301;56.864;60.554;2024-01-30T00:48:40;98836.16;;;26.62;27.20
69187;BME280;56301;56.864;60.554;2024-01-30T00:51:02;98839.88;;;26.61;27.71
69187;BME280;56301;56.864;60.554;2024-01-30T00:53:25;98837.84;;;26.63;28.34
69187;BME280;56301;56.864;60.554;2024-01-30T00:55:48;98838.88;;;26.62;28.46
69187;BME280;56301;56.864;60.554;2024-01-30T00:58:10;98842.22;;;26.64;28.36
69187;BME280;56301;56.864;60.554;2024-01-30T01:00:33;98833.06;;;26.66;28.82
69187;BME280;56301;56.864;60.554;2024-01-30T01:02:55;98838.66;;;26.64;27.87
69187;BME280;56301;56.864;60.554;2024-01-30T01:05:18;98832.19;;;26.65;28.06
69187;BME280;56301;56.864;60.554;2024-01-30T01:07:40;98835.78;;;26.66;27.89
69187;BME280;56301;56.864;60.554;2024-01-30T01:10:03;98837.84;;;26.63;26.92
69187;BME280;56301;56.864;60.554;2024-01-30T01:12:25;98831.38;;;26.64;27.37
69187;BME280;56301;56.864;60.554;2024-01-30T01:14:48;98826.97;;;26.63;27.23
69187;BME280;56301;56.864;60.554;2024-01-30T01:17:10;98825.94;;;26.64;27.76
69187;BME280;56301;56.864;60.554;2024-01-30T01:19:32;98824.25;;;26.63;27.82
69187;BME280;56301;56.864;60.554;2024-01-30T01:21:55;98813.19;;;26.65;27.67
69187;BME280;56301;56.864;60.554;2024-01-30T01:24:17;98816.97;;;26.64;27.92
69187;BME280;56301;56.864;60.554;2024-01-30T01:26:40;98817.16;;;26.62;27.68
69187;BME280;56301;56.864;60.554;2024-01-30T01:29:02;98808.38;;;26.60;27.54
69187;BME280;56301;56.864;60.554;2024-01-30T01:31:25;98812.13;;;26.59;27.44
69187;BME280;56301;56.864;60.554;2024-01-30T01:33:47;98806.03;;;26.57;27.50
69187;BME280;56301;56.864;60.554;2024-01-30T01:36:09;98809.78;;;26.56;28.06
69187;BME280;56301;56.864;60.554;2024-01-30T01:38:32;98804.38;;;26.56;27.70
69187;BME280;56301;56.864;60.554;2024-01-30T01:40:55;98798.28;;;26.54;27.69
69187;BME280;56301;56.864;60.554;2024-01-30T01:43:17;98798.50;;;26.53;26.78
69187;BME280;56301;56.864;60.554;2024-01-30T01:45:40;98796.63;;;26.53;27.12
69187;BME280;56301;56.864;60.554;2024-01-30T01:48:02;98791.84;;;26.55;27.85
69187;BME280;56301;56.864;60.554;2024-01-30T01:50:25;98793.75;;;26.61;27.63
69187;BME280;56301;56.864;60.554;2024-01-30T01:52:48;98789.63;;;26.66;27.92
69187;BME280;56301;56.864;60.554;2024-01-30T01:55:11;98789.22;;;26.69;26.84
69187;BME280;56301;56.864;60.554;2024-01-30T01:57:34;98779.84;;;26.71;27.54
69187;BME280;56301;56.864;60.554;2024-01-30T01:59:57;98780.50;;;26.73;26.87
69187;BME280;56301;56.864;60.554;2024-01-30T02:02:20;98774.44;;;26.71;27.48
69187;BME280;56301;56.864;60.554;2024-01-30T02:04:45;98772.75;;;26.70;27.31
69187;BME280;56301;56.864;60.554;2024-01-30T02:07:07;98775.66;;;26.69;27.47
69187;BME280;56301;56.864;60.554;2024-01-30T02:09:30;98773.97;;;26.68;26.98
69187;BME280;56301;56.864;60.554;2024-01-30T02:11:52;98774.81;;;26.68;26.27
69187;BME280;56301;56.864;60.554;2024-01-30T02:14:15;98768.38;;;26.69;26.87
69187;BME280;56301;56.864;60.554;2024-01-30T02:16:37;98772.31;;;26.67;27.37
69187;BME280;56301;56.864;60.554;2024-01-30T02:19:00;98767.94;;;26.66;27.10
69187;BME280;56301;56.864;60.554;2024-01-30T02:21:22;98762.09;;;26.69;26.60
69187;BME280;56301;56.864;60.554;2024-01-30T02:23:46;98769.00;;;26.71;27.65
69187;BME280;56301;56.864;60.554;2024-01-30T02:26:09;98769.84;;;26.72;27.08
69187;BME280;56301;56.864;60.554;2024-01-30T02:28:31;98769.00;;;26.71;27.65
69187;BME280;56301;56.864;60.554;2024-01-30T02:30:54;98758.13;;;26.71;26.77
69187;BME280;56301;56.864;60.554;2024-01-30T02:33:16;98745.41;;;26.72;27.07
69187;BME280;56301;56.864;60.554;2024-01-30T02:35:39;98746.25;;;26.72;26.26
69187;BME280;56301;56.864;60.554;2024-01-30T02:38:01;98737.25;;;26.72;27.32
69187;BME280;56301;56.864;60.554;2024-01-30T02:40:24;98738.09;;;26.72;27.28
69187;BME280;56301;56.864;60.554;2024-01-30T02:42:46;98738.97;;;26.73;26.80
69187;BME280;56301;56.864;60.554;2024-01-30T02:45:09;98731.84;;;26.72;26.58
69187;BME280;56301;56.864;60.554;2024-01-30T02:47:32;98727.06;;;26.74;26.08
69187;BME280;56301;56.864;60.554;2024-01-30T02:49:54;98725.56;;;26.71;27.22
69187;BME280;56301;56.864;60.554;2024-01-30T02:52:16;98700.97;;;26.73;26.55
69187;BME280;56301;56.864;60.554;2024-01-30T02:54:39;98724.34;;;26.74;26.20
69187;BME280;56301;56.864;60.554;2024-01-30T02:57:02;98723.97;;;26.77;26.06
69187;BME280;56301;56.864;60.554;2024-01-30T02:59:24;98718.25;;;26.72;26.70
69187;BME280;56301;56.864;60.554;2024-01-30T03:01:47;98722.69;;;26.73;26.91
69187;BME280;56301;56.864;60.554;2024-01-30T03:04:09;98712.66;;;26.73;27.33
69187;BME280;56301;56.864;60.554;2024-01-30T03:06:31;98718.91;;;26.74;27.29
69187;BME280;56301;56.864;60.554;2024-01-30T03:08:54;98717.03;;;26.74;26.20
69187;BME280;56301;56.864;60.554;2024-01-30T03:11:16;98716.81;;;26.76;26.35
69187;BME280;56301;56.864;60.554;2024-01-30T03:13:39;98709.72;;;26.75;26.00
69187;BME280;56301;56.864;60.554;2024-01-30T03:16:01;98710.78;;;26.74;27.35
69187;BME280;56301;56.864;60.554;2024-01-30T03:18:24;98713.50;;;26.74;26.62
69187;BME280;56301;56.864;60.554;2024-01-30T03:20:46;98705.34;;;26.74;25.91
69187;BME280;56301;56.864;60.554;2024-01-30T03:23:08;98707.22;;;26.73;26.27
69187;BME280;56301;56.864;60.554;2024-01-30T03:25:31;98705.13;;;26.75;26.55
69187;BME280;56301;56.864;60.554;2024-01-30T03:27:54;98714.13;;;26.76;26.38
69187;BME280;56301;56.864;60.554;2024-01-30T03:30:16;98707.00;;;26.75;26.00
69187;BME280;56301;56.864;60.554;2024-01-30T03:32:39;98706.84;;;26.76;26.35
69187;BME280;56301;56.864;60.554;2024-01-30T03:35:01;98703.53;;;26.81;27.42
69187;BME280;56301;56.864;60.554;2024-01-30T03:37:24;98702.25;;;26.83;27.27
69187;BME280;56301;56.864;60.554;2024-01-30T03:39:46;98691.81;;;26.80;26.66
69187;BME280;56301;56.864;60.554;2024-01-30T03:42:09;98695.53;;;26.73;26.92
69187;BME280;56301;56.864;60.554;2024-01-30T03:44:31;98691.28;;;26.63;25.95
69187;BME280;56301;56.864;60.554;2024-01-30T03:46:53;98692.50;;;26.61;26.81
69187;BME280;56301;56.864;60.554;2024-01-30T03:49:16;98686.63;;;26.57;26.54
69187;BME280;56301;56.864;60.554;2024-01-30T03:51:38;98685.25;;;26.40;27.20
69187;BME280;56301;56.864;60.554;2024-01-30T03:54:01;98684.00;;;26.42;27.01
69187;BME280;56301;56.864;60.554;2024-01-30T03:56:24;98678.66;;;26.49;28.09
69187;BME280;56301;56.864;60.554;2024-01-30T03:58:46;98677.72;;;26.42;27.91
69187;BME280;56301;56.864;60.554;2024-01-30T04:01:12;98672.75;;;26.46;27.82
69187;BME280;56301;56.864;60.554;2024-01-30T04:03:35;98668.53;;;26.43;28.97
69187;BME280;56301;56.864;60.554;2024-01-30T04:05:57;98675.53;;;26.52;27.57
69187;BME280;56301;56.864;60.554;2024-01-30T04:08:20;98655.63;;;26.45;28.06
69187;BME280;56301;56.864;60.554;2024-01-30T04:10:42;98665.38;;;26.33;28.07
69187;BME280;56301;56.864;60.554;2024-01-30T04:13:05;98664.25;;;26.27;27.94
69187;BME280;56301;56.864;60.554;2024-01-30T04:15:28;98667.63;;;26.29;27.50
69187;BME280;56301;56.864;60.554;2024-01-30T04:17:50;98665.09;;;26.28;27.27
69187;BME280;56301;56.864;60.554;2024-01-30T04:20:16;98642.06;;;26.17;26.46
69187;BME280;56301;56.864;60.554;2024-01-30T04:22:38;98651.75;;;26.26;27.31
69187;BME280;56301;56.864;60.554;2024-01-30T04:25:00;98659.03;;;26.26;26.55
69187;BME280;56301;56.864;60.554;2024-01-30T04:27:23;98656.13;;;26.27;27.38
69187;BME280;56301;56.864;60.554;2024-01-30T04:29:45;98653.63;;;26.26;26.37
69187;BME280;56301;56.864;60.554;2024-01-30T04:32:08;98628.94;;;26.21;28.35
69187;BME280;56301;56.864;60.554;2024-01-30T04:34:31;98654.78;;;26.16;27.16
69187;BME280;56301;56.864;60.554;2024-01-30T04:36:54;98649.94;;;26.12;27.50
69187;BME280;56301;56.864;60.554;2024-01-30T04:39:16;98651.16;;;26.09;27.42
69187;BME280;56301;56.864;60.554;2024-01-30T04:41:39;98651.38;;;26.08;26.87
69187;BME280;56301;56.864;60.554;2024-01-30T04:44:01;98647.63;;;26.09;26.94
69187;BME280;56301;56.864;60.554;2024-01-30T04:46:24;98650.34;;;26.09;26.74
69187;BME280;56301;56.864;60.554;2024-01-30T04:48:46;98643.88;;;26.10;26.60
69187;BME280;56301;56.864;60.554;2024-01-30T04:51:09;98647.84;;;26.07;26.63
69187;BME280;56301;56.864;60.554;2024-01-30T04:53:31;98653.88;;;26.09;26.40
69187;BME280;56301;56.864;60.554;2024-01-30T04:55:54;98649.69;;;26.07;26.63
69187;BME280;56301;56.864;60.554;2024-01-30T04:58:16;98654.09;;;26.08;26.88
69187;BME280;56301;56.864;60.554;2024-01-30T05:00:39;98644.09;;;26.08;26.83
69187;BME280;56301;56.864;60.554;2024-01-30T05:03:01;98641.53;;;26.07;26.13
69187;BME280;56301;56.864;60.554;2024-01-30T05:05:24;98637.00;;;26.07;26.06
69187;BME280;56301;56.864;60.554;2024-01-30T05:07:46;98639.88;;;26.06;26.54
69187;BME280;56301;56.864;60.554;2024-01-30T05:10:09;98641.53;;;26.07;26.15
69187;BME280;56301;56.864;60.554;2024-01-30T05:12:32;98638.00;;;26.06;25.62
69187;BME280;56301;56.864;60.554;2024-01-30T05:14:54;98636.13;;;26.07;26.35
69187;BME280;56301;56.864;60.554;2024-01-30T05:17:17;98642.78;;;26.04;26.51
69187;BME280;56301;56.864;60.554;2024-01-30T05:19:39;98631.13;;;26.04;26.04
69187;BME280;56301;56.864;60.554;2024-01-30T05:22:02;98635.50;;;26.05;26.13
69187;BME280;56301;56.864;60.554;2024-01-30T05:24:24;98626.53;;;26.04;25.65
69187;BME280;56301;56.864;60.554;2024-01-30T05:26:46;98624.66;;;26.05;26.29
69187;BME280;56301;56.864;60.554;2024-01-30T05:29:09;98625.28;;;26.07;25.44
69187;BME280;56301;56.864;60.554;2024-01-30T05:31:32;98622.38;;;26.08;26.01
69187;BME280;56301;56.864;60.554;2024-01-30T05:33:54;98622.38;;;26.08;26.21
69187;BME280;56301;56.864;60.554;2024-01-30T05:36:17;98613.22;;;26.09;25.71
69187;BME280;56301;56.864;60.554;2024-01-30T05:38:39;98608.19;;;26.06;25.67
69187;BME280;56301;56.864;60.554;2024-01-30T05:41:02;98605.47;;;26.06;25.88
69187;BME280;56301;56.864;60.554;2024-01-30T05:43:24;98600.03;;;26.06;26.34
69187;BME280;56301;56.864;60.554;2024-01-30T05:45:47;98599.03;;;26.07;25.68
69187;BME280;56301;56.864;60.554;2024-01-30T05:48:09;98601.91;;;26.06;26.15
69187;BME280;56301;56.864;60.554;2024-01-30T05:50:32;98608.19;;;26.06;26.11
69187;BME280;56301;56.864;60.554;2024-01-30T05:52:54;98590.03;;;26.07;25.57
69187;BME280;56301;56.864;60.554;2024-01-30T05:55:17;98594.22;;;26.09;25.72
69187;BME280;56301;56.864;60.554;2024-01-30T05:57:39;98590.69;;;26.09;25.62
69187;BME280;56301;56.864;60.554;2024-01-30T06:00:02;98591.72;;;26.08;26.31
69187;BME280;56301;56.864;60.554;2024-01-30T06:02:27;98586.94;;;26.10;26.35
69187;BME280;56301;56.864;60.554;2024-01-30T06:04:49;98582.75;;;26.07;26.02
69187;BME280;56301;56.864;60.554;2024-01-30T06:07:12;98583.78;;;26.06;25.28
69187;BME280;56301;56.864;60.554;2024-01-30T06:09:34;98581.91;;;26.07;25.43
69187;BME280;56301;56.864;60.554;2024-01-30T06:11:57;98579.00;;;26.08;25.46
69187;BME280;56301;56.864;60.554;2024-01-30T06:14:19;98571.91;;;26.07;25.39
69187;BME280;56301;56.864;60.554;2024-01-30T06:16:42;98579.19;;;26.07;26.11
69187;BME280;56301;56.864;60.554;2024-01-30T06:19:04;98571.06;;;26.07;25.96
69187;BME280;56301;56.864;60.554;2024-01-30T06:21:27;98553.94;;;26.06;25.93
69187;BME280;56301;56.864;60.554;2024-01-30T06:23:49;98566.66;;;26.06;26.01
69187;BME280;56301;56.864;60.554;2024-01-30T06:26:11;98562.75;;;26.08;25.82
69187;BME280;56301;56.864;60.554;2024-01-30T06:28:34;98561.50;;;26.11;25.20
69187;BME280;56301;56.864;60.554;2024-01-30T06:30:56;98550.22;;;26.07;26.17
69187;BME280;56301;56.864;60.554;2024-01-30T06:33:19;98544.81;;;26.07;25.81
69187;BME280;56301;56.864;60.554;2024-01-30T06:35:41;98539.56;;;26.06;25.89
69187;BME280;56301;56.864;60.554;2024-01-30T06:38:03;98543.94;;;26.07;25.92
69187;BME280;56301;56.864;60.554;2024-01-30T06:40:26;98537.69;;;26.06;25.33
69187;BME280;56301;56.864;60.554;2024-01-30T06:42:48;98540.38;;;26.06;25.81
69187;BME280;56301;56.864;60.554;2024-01-30T06:45:11;98535.81;;;26.07;25.15
69187;BME280;56301;56.864;60.554;2024-01-30T06:47:33;98536.00;;;26.05;25.64
69187;BME280;56301;56.864;60.554;2024-01-30T06:49:56;98530.59;;;26.05;25.77
69187;BME280;56301;56.864;60.554;2024-01-30T06:52:18;98530.38;;;26.07;24.97
69187;BME280;56301;56.864;60.554;2024-01-30T06:54:40;98525.16;;;26.05;25.76
69187;BME280;56301;56.864;60.554;2024-01-30T06:57:03;98518.09;;;26.04;25.30
69187;BME280;56301;56.864;60.554;2024-01-30T06:59:25;98517.69;;;26.07;25.76
69187;BME280;56301;56.864;60.554;2024-01-30T07:01:48;98512.06;;;26.09;25.68
69187;BME280;56301;56.864;60.554;2024-01-30T07:04:10;98511.22;;;26.08;25.17
69187;BME280;56301;56.864;60.554;2024-01-30T07:06:33;98505.97;;;26.07;25.67
69187;BME280;56301;56.864;60.554;2024-01-30T07:08:55;98503.91;;;26.09;25.80
69187;BME280;56301;56.864;60.554;2024-01-30T07:11:21;98496.00;;;26.07;25.59
69187;BME280;56301;56.864;60.554;2024-01-30T07:13:43;98497.00;;;26.06;25.40
69187;BME280;56301;56.864;60.554;2024-01-30T07:16:06;98488.88;;;26.06;24.91
69187;BME280;56301;56.864;60.554;2024-01-30T07:18:28;98487.22;;;26.05;24.81
69187;BME280;56301;56.864;60.554;2024-01-30T07:20:51;98485.16;;;26.07;24.85
69187;BME280;56301;56.864;60.554;2024-01-30T07:23:13;98480.75;;;26.06;25.15
69187;BME280;56301;56.864;60.554;2024-01-30T07:25:36;98486.16;;;26.06;25.66
69187;BME280;56301;56.864;60.554;2024-01-30T07:27:58;98475.31;;;26.06;24.96
69187;BME280;56301;56.864;60.554;2024-01-30T07:30:21;98474.31;;;26.07;25.21
69187;BME280;56301;56.864;60.554;2024-01-30T07:32:43;98470.94;;;26.05;25.49
69187;BME280;56301;56.864;60.554;2024-01-30T07:35:06;98466.34;;;26.06;24.90
69187;BME280;56301;56.864;60.554;2024-01-30T07:37:28;98459.88;;;26.07;24.72
69187;BME280;56301;56.864;60.554;2024-01-30T07:39:51;98465.13;;;26.08;24.56
69187;BME280;56301;56.864;60.554;2024-01-30T07:42:13;98453.63;;;26.06;25.13
69187;BME280;56301;56.864;60.554;2024-01-30T07:44:36;98450.91;;;26.06;25.33
69187;BME280;56301;56.864;60.554;2024-01-30T07:46:58;98445.50;;;26.06;25.01
69187;BME280;56301;56.864;60.554;2024-01-30T07:49:21;98440.28;;;26.05;24.75
69187;BME280;56301;56.864;60.554;2024-01-30T07:51:43;98441.78;;;26.07;24.80
69187;BME280;56301;56.864;60.554;2024-01-30T07:54:15;98430.94;;;26.07;24.73
69187;BME280;56301;56.864;60.554;2024-01-30T07:56:37;98430.72;;;26.09;24.84
69187;BME280;56301;56.864;60.554;2024-01-30T07:58:59;98431.75;;;26.08;24.60
69187;BME280;56301;56.864;60.554;2024-01-30T08:01:22;98427.16;;;26.08;24.58
69187;BME280;56301;56.864;60.554;2024-01-30T08:03:44;98424.63;;;26.07;25.68
69187;BME280;56301;56.864;60.554;2024-01-30T08:06:07;98428.84;;;26.09;24.76
69187;BME280;56301;56.864;60.554;2024-01-30T08:08:29;98419.88;;;26.09;25.49
69187;BME280;56301;56.864;60.554;2024-01-30T08:10:52;98420.50;;;26.11;24.99
69187;BME280;56301;56.864;60.554;2024-01-30T08:13:14;98420.91;;;26.08;25.37
69187;BME280;56301;56.864;60.554;2024-01-30T08:15:37;98413.41;;;26.10;24.70
69187;BME280;56301;56.864;60.554;2024-01-30T08:17:59;98398.38;;;26.07;24.96
69187;BME280;56301;56.864;60.554;2024-01-30T08:20:23;98398.81;;;26.11;24.89
69187;BME280;56301;56.864;60.554;2024-01-30T08:22:46;98394.22;;;26.11;25.37
69187;BME280;56301;56.864;60.554;2024-01-30T08:25:08;98387.75;;;26.12;24.99
69187;BME280;56301;56.864;60.554;2024-01-30T08:27:31;98389.25;;;26.15;25.33
69187;BME280;56301;56.864;60.554;2024-01-30T08:29:53;98386.31;;;26.16;24.64
69187;BME280;56301;56.864;60.554;2024-01-30T08:32:16;98383.00;;;26.14;24.54
69187;BME280;56301;56.864;60.554;2024-01-30T08:34:38;98379.00;;;26.17;24.80
69187;BME280;56301;56.864;60.554;2024-01-30T08:37:00;98374.63;;;26.16;25.37
69187;BME280;56301;56.864;60.554;2024-01-30T08:39:23;98377.56;;;26.14;25.48
69187;BME280;56301;56.864;60.554;2024-01-30T08:41:46;98367.34;;;26.16;24.79
69187;BME280;56301;56.864;60.554;2024-01-30T08:44:08;98369.66;;;26.20;24.75
69187;BME280;56301;56.864;60.554;2024-01-30T08:46:31;98369.25;;;26.23;24.57
69187;BME280;56301;56.864;60.554;2024-01-30T08:48:53;98359.66;;;26.27;24.54
69187;BME280;56301;56.864;60.554;2024-01-30T08:51:16;98361.31;;;26.28;24.63
69187;BME280;56301;56.864;60.554;2024-01-30T08:53:39;98360.28;;;26.29;25.10
69187;BME280;56301;56.864;60.554;2024-01-30T08:56:02;98360.91;;;26.31;25.03
69187;BME280;56301;56.864;60.554;2024-01-30T08:58:24;98352.78;;;26.31;25.14
69187;BME280;56301;56.864;60.554;2024-01-30T09:00:47;98350.91;;;26.31;24.55
69187;BME280;56301;56.864;60.554;2024-01-30T09:03:09;98348.19;;;26.31;25.28
69187;BME280;56301;56.864;60.554;2024-01-30T09:05:32;98344.66;;;26.31;24.31
69187;BME280;56301;56.864;60.554;2024-01-30T09:07:55;98345.28;;;26.33;25.38
69187;BME280;56301;56.864;60.554;2024-01-30T09:10:17;98339.00;;;26.32;24.66
69187;BME280;56301;56.864;60.554;2024-01-30T09:12:40;98336.94;;;26.34;24.52
69187;BME280;56301;56.864;60.554;2024-01-30T09:15:02;98337.97;;;26.33;25.35
69187;BME280;56301;56.864;60.554;2024-01-30T09:17:25;98335.47;;;26.32;24.96
69187;BME280;56301;56.864;60.554;2024-01-30T09:19:47;98330.88;;;26.32;25.22
69187;BME280;56301;56.864;60.554;2024-01-30T09:22:10;98330.03;;;26.32;24.19
69187;BME280;56301;56.864;60.554;2024-01-30T09:24:32;98328.16;;;26.32;24.53
69187;BME280;56301;56.864;60.554;2024-01-30T09:26:55;98329.41;;;26.30;24.52
69187;BME280;56301;56.864;60.554;2024-01-30T09:29:17;98322.94;;;26.31;25.24
69187;BME280;56301;56.864;60.554;2024-01-30T09:31:42;98316.88;;;26.29;25.59
69187;BME280;56301;56.864;60.554;2024-01-30T09:34:05;98307.91;;;26.28;25.06
69187;BME280;56301;56.864;60.554;2024-01-30T09:36:27;98312.50;;;26.28;25.36
69187;BME280;56301;56.864;60.554;2024-01-30T09:38:50;98304.19;;;26.29;25.20
69187;BME280;56301;56.864;60.554;2024-01-30T09:41:12;98294.16;;;26.30;24.80
69187;BME280;56301;56.864;60.554;2024-01-30T09:43:35;98299.59;;;26.30;25.48
69187;BME280;56301;56.864;60.554;2024-01-30T09:45:57;98294.16;;;26.30;25.32
69187;BME280;56301;56.864;60.554;2024-01-30T09:48:21;98283.31;;;26.30;25.42
69187;BME280;56301;56.864;60.554;2024-01-30T09:50:44;98285.19;;;26.29;24.81
69187;BME280;56301;56.864;60.554;2024-01-30T09:53:07;98282.47;;;26.29;25.45
69187;BME280;56301;56.864;60.554;2024-01-30T09:55:30;98289.75;;;26.29;24.92
69187;BME280;56301;56.864;60.554;2024-01-30T09:57:53;98285.38;;;26.28;25.34
69187;BME280;56301;56.864;60.554;2024-01-30T10:00:15;98287.03;;;26.29;25.42
69187;BME280;56301;56.864;60.554;2024-01-30T10:02:38;98279.78;;;26.29;24.76
69187;BME280;56301;56.864;60.554;2024-01-30T10:05:00;98275.19;;;26.30;25.55
69187;BME280;56301;56.864;60.554;2024-01-30T10:07:23;98275.38;;;26.35;25.32
69187;BME280;56301;56.864;60.554;2024-01-30T10:09:46;98276.84;;;26.37;26.01
69187;BME280;56301;56.864;60.554;2024-01-30T10:12:08;98275.38;;;26.35;25.97
69187;BME280;56301;56.864;60.554;2024-01-30T10:14:31;98271.19;;;26.32;24.95
69187;BME280;56301;56.864;60.554;2024-01-30T10:16:54;98282.47;;;26.36;25.75
69187;BME280;56301;56.864;60.554;2024-01-30T10:19:17;98271.19;;;26.32;25.09
69187;BME280;56301;56.864;60.554;2024-01-30T10:21:40;98264.94;;;26.32;25.01
69187;BME280;56301;56.864;60.554;2024-01-30T10:24:02;98266.00;;;26.31;25.67
69187;BME280;56301;56.864;60.554;2024-01-30T10:26:25;98270.38;;;26.32;25.73
69187;BME280;56301;56.864;60.554;2024-01-30T10:28:47;98253.25;;;26.31;25.58
69187;BME280;56301;56.864;60.554;2024-01-30T10:31:10;98258.50;;;26.33;25.12
69187;BME280;56301;56.864;60.554;2024-01-30T10:33:33;98259.50;;;26.32;25.99
69187;BME280;56301;56.864;60.554;2024-01-30T10:36:00;98255.78;;;26.33;25.17
69187;BME280;56301;56.864;60.554;2024-01-30T10:38:23;98252.44;;;26.31;25.66
69187;BME280;56301;56.864;60.554;2024-01-30T10:40:47;98237.81;;;26.25;24.95
69187;BME280;56301;56.864;60.554;2024-01-30T10:43:10;98246.59;;;26.34;26.04
69187;BME280;56301;56.864;60.554;2024-01-30T10:45:33;98244.94;;;26.33;25.94
69187;BME280;56301;56.864;60.554;2024-01-30T10:47:57;98237.81;;;26.32;25.10
69187;BME280;56301;56.864;60.554;2024-01-30T10:50:21;98237.81;;;26.32;25.25
69187;BME280;56301;56.864;60.554;2024-01-30T10:52:46;98241.34;;;26.32;25.25
69187;BME280;56301;56.864;60.554;2024-01-30T10:55:09;98247.00;;;26.31;26.11
69187;BME280;56301;56.864;60.554;2024-01-30T10:57:32;98242.41;;;26.31;25.92
69187;BME280;56301;56.864;60.554;2024-01-30T10:59:59;98242.41;;;26.31;26.16
69187;BME280;56301;56.864;60.554;2024-01-30T11:02:23;98245.75;;;26.33;24.91
69187;BME280;56301;56.864;60.554;2024-01-30T11:04:45;98226.13;;;26.31;25.35
69187;BME280;56301;56.864;60.554;2024-01-30T11:07:17;98228.03;;;26.31;25.88
69187;BME280;56301;56.864;60.554;2024-01-30T11:09:40;98234.50;;;26.30;26.08
69187;BME280;56301;56.864;60.554;2024-01-30T11:12:03;98235.09;;;26.32;25.77
69187;BME280;56301;56.864;60.554;2024-01-30T11:14:26;98230.09;;;26.29;25.31
69187;BME280;56301;56.864;60.554;2024-01-30T11:16:49;98231.97;;;26.28;25.34
69187;BME280;56301;56.864;60.554;2024-01-30T11:19:11;98227.19;;;26.30;26.15
69187;BME280;56301;56.864;60.554;2024-01-30T11:21:33;98225.31;;;26.31;25.73
69187;BME280;56301;56.864;60.554;2024-01-30T11:24:02;98225.72;;;26.28;25.43
69187;BME280;56301;56.864;60.554;2024-01-30T11:26:27;98216.13;;;26.32;25.78
69187;BME280;56301;56.864;60.554;2024-01-30T11:28:52;98207.38;;;26.30;25.81
69187;BME280;56301;56.864;60.554;2024-01-30T11:31:15;98203.63;;;26.31;26.28
69187;BME280;56301;56.864;60.554;2024-01-30T11:33:41;98205.28;;;26.32;26.20
69187;BME280;56301;56.864;60.554;2024-01-30T11:36:03;98201.53;;;26.33;25.24
69187;BME280;56301;56.864;60.554;2024-01-30T11:38:26;98198.19;;;26.31;26.02
69187;BME280;56301;56.864;60.554;2024-01-30T11:40:49;98201.53;;;26.33;25.68
69187;BME280;56301;56.864;60.554;2024-01-30T11:43:12;98195.25;;;26.32;25.80
69187;BME280;56301;56.864;60.554;2024-01-30T11:45:35;98189.22;;;26.30;26.06
69187;BME280;56301;56.864;60.554;2024-01-30T11:47:58;98199.00;;;26.31;25.28
69187;BME280;56301;56.864;60.554;2024-01-30T11:50:21;98189.00;;;26.32;26.07
69187;BME280;56301;56.864;60.554;2024-01-30T11:52:44;98181.91;;;26.31;25.46
69187;BME280;56301;56.864;60.554;2024-01-30T11:55:07;98178.38;;;26.30;25.98
69187;BME280;56301;56.864;60.554;2024-01-30T11:57:29;98177.31;;;26.31;25.80
69187;BME280;56301;56.864;60.554;2024-01-30T11:59:52;98174.81;;;26.30;26.08
69187;BME280;56301;56.864;60.554;2024-01-30T12:02:17;98184.63;;;26.31;25.93
69187;BME280;56301;56.864;60.554;2024-01-30T12:04:40;98180.66;;;26.27;26.07
69187;BME280;56301;56.864;60.554;2024-01-30T12:07:02;98178.97;;;26.32;25.85
69187;BME280;56301;56.864;60.554;2024-01-30T12:09:24;98181.50;;;26.34;25.39
69187;BME280;56301;56.864;60.554;2024-01-30T12:11:47;98173.78;;;26.31;25.64
69187;BME280;56301;56.864;60.554;2024-01-30T12:14:10;98172.13;;;26.30;25.98
69187;BME280;56301;56.864;60.554;2024-01-30T12:16:33;98171.06;;;26.31;26.12
69187;BME280;56301;56.864;60.554;2024-01-30T12:18:59;98165.88;;;26.29;26.00
69187;BME280;56301;56.864;60.554;2024-01-30T12:21:21;98165.63;;;26.31;25.66
69187;BME280;56301;56.864;60.554;2024-01-30T12:23:44;98167.31;;;26.32;25.42
69187;BME280;56301;56.864;60.554;2024-01-30T12:26:07;98162.09;;;26.30;25.91